Time;durP1;ratioP1;P1;durP2;ratioP2;P2;SDS_P1;SDS_P2;PMS_P1;PMS_P2;Temp;Humidity;BMP_temperature;BMP_pressure;BME280_temperature;BME280_humidity;BME280_pressure;Samples;Min_cycle;Max_cycle;Signal;HPM_P1;HPM_P2
2022/02/08 06:28:41;;;;;;;;;6.00;6.00;;;;;16.47;58.13;102989.13;5077494;27;45495;-74
2022/02/08 06:31:06;;;;;;;;;4.00;4.00;;;;;16.68;58.22;102992.69;5084816;27;45599;-73
2022/02/08 06:33:32;;;;;;;;;6.50;6.50;;;;;16.96;57.90;102990.59;5084578;27;45605;-73
2022/02/08 06:35:57;;;;;;;;;7.00;5.00;;;;;17.24;57.66;102995.56;5085894;27;45560;-72
2022/02/08 06:38:22;;;;;;;;;3.25;3.25;;;;;17.52;57.48;102988.91;5080622;27;52330;-73
2022/02/08 06:40:51;;;;;;;;;4.50;4.25;;;;;17.83;57.05;102985.66;5078851;27;45615;-73
2022/02/08 06:43:17;;;;;;;;;6.00;5.00;;;;;18.11;56.23;102985.19;5081229;27;45669;-73
2022/02/08 06:45:43;;;;;;;;;4.75;4.75;;;;;18.39;55.87;102990.97;5080874;27;45610;-74
2022/02/08 06:48:10;;;;;;;;;4.00;4.00;;;;;18.64;55.43;102992.38;5080233;27;45790;-73
2022/02/08 06:50:36;;;;;;;;;5.00;4.00;;;;;18.85;54.81;102993.06;5084000;27;45556;-73
2022/02/08 06:53:01;;;;;;;;;4.50;4.50;;;;;19.11;54.20;102998.00;5082576;27;45854;-72
2022/02/08 06:55:28;;;;;;;;;6.00;4.00;;;;;19.30;53.88;102997.88;5081774;27;46470;-71
2022/02/08 07:00:28;;;;;;;;;6.00;6.00;;;;;19.69;53.09;102995.69;5084377;27;45766;-71
2022/02/08 07:02:53;;;;;;;;;5.00;5.00;;;;;19.85;52.41;102983.06;5085891;27;45473;-71
2022/02/08 07:05:20;;;;;;;;;6.67;6.67;;;;;20.01;52.25;102979.50;5085405;27;45632;-70
2022/02/08 07:07:45;;;;;;;;;8.00;6.00;;;;;20.16;52.25;102974.16;5081481;27;45572;-72
2022/02/08 07:10:11;;;;;;;;;5.33;4.67;;;;;20.28;51.80;102978.84;5078007;27;45540;-72
2022/02/08 07:12:36;;;;;;;;;10.33;6.00;;;;;20.35;51.34;102980.19;5090881;27;45365;-72
2022/02/08 07:15:08;;;;;;;;;6.33;5.00;;;;;20.48;51.29;102998.31;5081729;27;45406;-72
2022/02/08 07:17:33;;;;;;;;;6.67;4.67;;;;;20.56;50.40;102990.59;5073335;27;47196;-72
2022/02/08 07:19:59;;;;;;;;;6.67;5.67;;;;;20.63;51.00;102997.38;5078531;27;45770;-72
2022/02/08 07:22:24;;;;;;;;;5.67;4.33;;;;;20.71;50.80;103001.41;5085676;27;45403;-72
2022/02/08 07:24:50;;;;;;;;;6.00;5.33;;;;;20.77;50.27;103010.00;5085201;27;45745;-72
2022/02/08 07:27:15;;;;;;;;;6.00;5.00;;;;;20.85;50.55;103014.09;5088653;27;46266;-72
2022/02/08 07:29:48;;;;;;;;;3.33;3.33;;;;;20.90;49.75;103012.88;5085713;27;45473;-72
2022/02/08 07:32:14;;;;;;;;;6.00;5.00;;;;;20.91;49.45;103016.41;5085398;27;45399;-72
2022/02/08 07:34:44;;;;;;;;;6.00;5.00;;;;;20.99;49.53;103016.81;5082200;27;45547;-72
2022/02/08 07:39:43;;;;;;;;;3.00;3.00;;;;;21.09;49.57;103035.13;5072765;27;45606;-72
2022/02/08 07:42:08;;;;;;;;;3.00;3.00;;;;;21.13;49.68;103040.25;5068403;27;45487;-72
2022/02/08 07:44:35;;;;;;;;;5.00;5.00;;;;;21.19;49.63;103033.59;5070984;27;45492;-71
2022/02/08 07:47:00;;;;;;;;;5.33;4.67;;;;;21.25;49.96;103027.78;5063655;27;45517;-72
2022/02/08 07:49:26;;;;;;;;;6.33;5.67;;;;;21.30;49.24;103032.91;5064711;27;45486;-75
2022/02/08 07:51:52;;;;;;;;;6.00;6.00;;;;;21.24;49.16;103014.38;5069912;27;45491;-72
2022/02/08 07:54:17;;;;;;;;;7.33;5.00;;;;;21.41;49.53;103040.31;5070322;28;45584;-72
2022/02/08 07:56:42;;;;;;;;;5.33;5.00;;;;;21.44;49.14;103035.59;5070080;27;45411;-72
2022/02/08 07:59:08;;;;;;;;;8.00;5.33;;;;;21.46;49.07;103038.22;5066987;28;45689;-73
2022/02/08 08:01:33;;;;;;;;;10.67;8.00;;;;;21.43;48.97;103031.16;5073073;28;46778;-74
2022/02/08 08:03:58;;;;;;;;;8.33;6.67;;;;;21.49;48.95;103047.94;5072886;27;45449;-75
2022/02/08 08:06:24;;;;;;;;;9.00;7.00;;;;;21.50;48.72;103047.81;5073553;28;45790;-73
2022/02/08 08:08:51;;;;;;;;;5.33;5.00;;;;;21.55;48.97;103042.13;5072359;27;45575;-74
2022/02/08 08:11:21;;;;;;;;;8.00;5.67;;;;;21.24;49.10;102982.84;5070013;27;45554;-74
2022/02/08 08:13:51;;;;;;;;;5.00;5.00;;;;;21.62;49.02;103043.47;5071117;27;45696;-73
2022/02/08 08:16:28;;;;;;;;;5.67;4.00;;;;;21.65;49.17;103045.97;5066437;28;47234;-74
2022/02/08 08:21:23;;;;;;;;;4.67;4.67;;;;;21.73;49.48;103040.09;5073674;27;45509;-75
2022/02/08 08:23:48;;;;;;;;;7.00;7.00;;;;;21.74;49.40;103044.53;5073210;28;45594;-74
2022/02/08 08:26:14;;;;;;;;;6.33;6.00;;;;;21.77;49.35;103046.16;5066255;27;45562;-75
2022/02/08 08:28:39;;;;;;;;;5.00;5.00;;;;;21.79;49.38;103041.53;5069398;27;45469;-75
2022/02/08 08:31:05;;;;;;;;;6.67;5.67;;;;;21.83;49.54;103037.66;5061424;28;45767;-75
2022/02/08 08:33:31;;;;;;;;;6.00;6.00;;;;;21.85;49.24;103042.00;5074639;28;45488;-75
2022/02/08 08:35:56;;;;;;;;;3.00;3.00;;;;;21.85;49.19;103033.00;5065123;27;46848;-74
2022/02/08 08:38:23;;;;;;;;;8.00;5.00;;;;;21.89;49.03;103036.38;5068998;27;45520;-72
2022/02/08 08:49:00;;;;;;;;;5.67;4.00;;;;;21.96;49.30;103041.25;5065631;28;45591;-73
2022/02/08 08:53:56;;;;;;;;;5.33;3.67;;;;;21.98;48.97;103035.75;5062706;27;45687;-72
2022/02/08 08:56:22;;;;;;;;;7.00;5.67;;;;;21.98;48.84;103035.75;5070059;28;48569;-72
2022/02/08 08:58:47;;;;;;;;;4.33;4.33;;;;;21.99;48.84;103029.41;5071018;27;45591;-73
2022/02/08 09:01:13;;;;;;;;;5.00;4.00;;;;;21.98;49.17;103035.75;5071281;28;45844;-72
2022/02/08 09:03:39;;;;;;;;;5.67;5.33;;;;;21.98;49.49;103033.06;5060925;28;45742;-71
2022/02/08 09:06:05;;;;;;;;;5.00;4.33;;;;;21.96;49.12;103027.75;5071547;28;46223;-70
2022/02/08 09:08:33;;;;;;;;;4.33;3.33;;;;;21.97;49.51;103032.22;5069841;27;45436;-71
2022/02/08 09:11:11;;;;;;;;;4.00;4.00;;;;;21.92;49.14;103023.53;5069507;28;45340;-70
2022/02/08 09:13:44;;;;;;;;;4.67;4.67;;;;;21.96;49.14;103030.44;5070809;27;45410;-71
2022/02/08 09:16:26;;;;;;;;;4.33;4.00;;;;;21.93;49.08;103025.25;5063430;28;47218;-71
2022/02/08 09:27:22;;;;;;;;;3.67;3.67;;;;;22.02;48.84;103028.34;5068626;27;46109;-72
2022/02/08 09:30:01;;;;;;;;;4.00;3.00;;;;;22.03;48.57;103024.66;5068093;28;45524;-73
2022/02/08 09:34:56;;;;;;;;;4.67;4.67;;;;;22.03;48.72;103028.19;5071173;27;45373;-72
2022/02/08 09:37:22;;;;;;;;;7.00;4.00;;;;;22.01;48.89;103013.06;5067667;28;46323;-72
2022/02/08 09:39:51;;;;;;;;;7.00;5.00;;;;;22.02;48.87;103009.41;5069887;28;45763;-71
2022/02/08 09:42:17;;;;;;;;;5.33;3.67;;;;;22.06;49.03;103024.41;5069889;28;45458;-70
2022/02/08 09:44:42;;;;;;;;;4.00;4.00;;;;;22.07;48.82;103013.50;5052052;28;45423;-75
2022/02/08 09:47:12;;;;;;;;;8.67;7.33;;;;;22.05;47.71;103020.88;5067373;27;46040;-74
2022/02/08 09:49:40;;;;;;;;;5.33;5.33;;;;;21.98;47.40;103011.41;5067175;27;45841;-75
2022/02/08 09:52:07;;;;;;;;;5.00;4.67;;;;;21.92;47.47;103018.13;5069612;27;45750;-76
2022/02/08 09:54:33;;;;;;;;;9.67;6.33;;;;;21.87;47.27;103022.09;5070230;28;45329;-74
2022/02/08 09:56:59;;;;;;;;;7.00;5.00;;;;;21.83;47.22;103025.00;5066850;27;46302;-72
2022/02/08 09:59:24;;;;;;;;;9.00;8.67;;;;;21.82;47.20;103019.69;5069730;28;45499;-81
2022/02/08 10:01:55;;;;;;;;;9.00;9.00;;;;;21.81;47.99;103016.13;5067365;27;45583;-73
2022/02/08 10:04:20;;;;;;;;;7.00;5.33;;;;;21.81;47.60;103021.53;5062191;28;45547;-74
2022/02/08 10:06:46;;;;;;;;;18.00;11.67;;;;;21.83;47.51;103022.28;5056914;28;46047;-73
2022/02/08 10:09:11;;;;;;;;;9.00;9.00;;;;;21.85;48.23;103019.50;5066964;27;45325;-73
2022/02/08 10:22:32;;;;;;;;;12.00;10.00;;;;;21.90;47.52;103019.19;5060708;28;45676;-80
2022/02/08 10:25:04;;;;;;;;;18.33;12.00;;;;;21.87;46.76;103020.28;5070680;27;45673;-79
2022/02/08 10:27:42;;;;;;;;;13.00;11.33;;;;;21.82;47.12;103011.56;5058517;28;46406;-80
2022/02/08 10:38:25;;;;;;;;;14.67;10.67;;;;;21.62;46.60;103029.94;5068638;28;45382;-80
2022/02/08 10:40:55;;;;;;;;;12.00;9.00;;;;;21.57;46.41;103011.34;5066287;27;45510;-79
2022/02/08 10:43:21;;;;;;;;;11.67;9.33;;;;;21.54;46.56;103021.50;5068039;28;45426;-80
2022/02/08 10:45:46;;;;;;;;;16.67;9.67;;;;;21.51;46.38;103027.09;5069178;28;45759;-80
2022/02/08 10:48:22;;;;;;;;;11.33;11.33;;;;;21.47;46.79;103021.03;5061901;28;47070;-80
2022/02/08 10:50:53;;;;;;;;;25.00;18.25;;;;;21.45;46.47;103034.63;5060961;27;45648;-74
2022/02/08 10:53:21;;;;;;;;;19.50;14.25;;;;;21.44;46.41;103030.19;5062665;28;45386;-73
2022/02/08 10:56:03;;;;;;;;;22.67;17.00;;;;;21.43;46.55;103028.47;5066808;28;45545;-73
2022/02/08 11:03:41;;;;;;;;;16.50;14.00;;;;;21.43;47.02;103022.19;5071534;28;45432;-74
2022/02/08 11:09:40;;;;;;;;;12.67;12.00;;;;;21.42;46.90;103020.47;5068366;28;46103;-73
2022/02/08 11:15:17;;;;;;;;;17.00;14.33;;;;;21.35;46.85;103009.19;5028863;28;45593;-74
2022/02/08 11:20:41;;;;;;;;;18.33;14.00;;;;;21.37;46.92;103006.38;5028919;28;45452;-75
2022/02/08 11:23:56;;;;;;;;;12.67;11.00;;;;;21.36;46.69;103010.91;5027828;28;45825;-74
2022/02/08 11:26:04;;;;;;;;;12.50;10.75;;;;;21.28;46.60;102997.91;5027031;28;45478;-74
2022/02/08 11:28:43;;;;;;;;;13.00;10.00;;;;;21.35;46.58;103003.78;5029417;28;45789;-74
2022/02/08 11:31:35;;;;;;;;;17.33;11.00;;;;;21.35;46.99;103002.88;5014414;28;46406;-74
2022/02/08 11:40:05;;;;;;;;;12.67;11.33;;;;;21.32;46.14;102993.16;5032610;28;45550;-74
2022/02/08 11:53:38;;;;;;;;;13.00;13.00;;;;;21.26;46.54;102967.41;5069658;28;46252;-79
2022/02/08 12:01:44;;;;;;;;;22.75;17.75;;;;;21.27;46.23;102960.16;5058626;28;45581;-73
2022/02/08 12:53:56;;;;;;;;;21.00;16.00;;;;;21.61;47.81;102901.22;4984232;28;45919;-74
2022/02/08 13:02:27;;;;;;;;;17.33;15.33;;;;;21.64;47.65;102889.31;4929844;28;45554;-73
2022/02/08 13:05:42;;;;;;;;;15.00;13.00;;;;;21.68;47.49;102890.84;4929627;28;45505;-73
2022/02/08 14:05:05;;;;;;;;;10.33;9.33;;;;;21.84;48.09;102840.19;5070743;28;45469;-72
2022/02/08 14:06:19;;;;;;;;;7.00;7.00;;;;;21.84;48.08;102834.78;5054305;27;45961;-72
2022/02/08 14:09:00;;;;;;;;;11.33;9.67;;;;;21.83;48.00;102838.47;5066180;28;45439;-72
2022/02/08 14:29:57;;;;;;;;;11.67;11.67;;;;;21.83;48.46;102834.91;5057298;28;50574;-73
2022/02/08 14:35:36;;;;;;;;;12.33;9.00;;;;;21.82;48.51;102831.34;5014161;28;45711;-72
2022/02/08 15:10:26;;;;;;;;;9.00;7.00;;;;;21.94;48.93;102826.91;5023602;28;46167;-72
2022/02/08 15:12:58;;;;;;;;;8.33;7.67;;;;;21.99;48.76;102823.91;5072828;28;45673;-72
2022/02/08 15:15:39;;;;;;;;;9.00;7.67;;;;;22.05;49.11;102828.00;5066083;28;45565;-75
2022/02/08 15:18:05;;;;;;;;;7.00;6.67;;;;;22.10;49.22;102837.53;5073791;27;45369;-73
2022/02/08 15:20:30;;;;;;;;;9.67;6.67;;;;;22.18;48.69;102839.69;5063020;27;46863;-74
2022/02/08 15:23:02;;;;;;;;;10.00;9.00;;;;;22.24;48.68;102836.53;5064163;28;50556;-73
2022/02/08 15:25:29;;;;;;;;;13.00;10.33;;;;;22.18;47.88;102806.34;5072097;27;45295;-77
2022/02/08 15:28:00;;;;;;;;;23.33;17.33;;;;;22.20;46.23;102821.50;5071678;27;45585;-76
2022/02/08 15:30:26;;;;;;;;;16.67;15.00;;;;;22.25;46.40;102838.25;5074467;28;45321;-77
2022/02/08 15:32:51;;;;;;;;;20.67;16.67;;;;;22.22;46.34;102834.91;5071682;28;45575;-75
2022/02/08 15:35:16;;;;;;;;;26.00;22.00;;;;;22.19;46.36;102841.41;5073634;27;45628;-74
2022/02/08 15:37:42;;;;;;;;;22.00;19.00;;;;;22.16;46.75;102836.25;5071868;28;45845;-75
2022/02/08 15:40:09;;;;;;;;;26.00;21.75;;;;;22.15;46.60;102839.88;5072788;27;46085;-74
2022/02/08 15:42:39;;;;;;;;;24.25;23.25;;;;;22.13;46.23;102836.44;5071783;28;45919;-75
2022/02/08 15:45:14;;;;;;;;;26.25;20.50;;;;;22.11;46.16;102843.78;5073859;27;45488;-76
2022/02/08 15:47:39;;;;;;;;;33.50;28.00;;;;;22.10;46.11;102842.94;5069973;28;45595;-79
2022/02/08 15:50:11;;;;;;;;;28.75;20.25;;;;;22.04;46.90;102827.16;5072663;28;45643;-78
2022/02/08 15:58:21;;;;;;;;;31.50;24.75;;;;;22.01;46.78;102840.00;5071146;27;45498;-78
2022/02/08 16:01:03;;;;;;;;;27.75;23.00;;;;;21.97;46.80;102836.66;5070374;28;46467;-78
2022/02/08 16:08:59;;;;;;;;;25.75;20.75;;;;;21.90;46.33;102820.00;5070414;28;45438;-78
2022/02/08 16:14:06;;;;;;;;;26.50;20.25;;;;;21.87;46.44;102828.34;5063700;28;45415;-77
2022/02/08 16:19:10;;;;;;;;;35.00;27.25;;;;;21.84;47.00;102826.69;5071961;28;45438;-78
2022/02/08 16:53:47;;;;;;;;;20.33;18.67;;;;;22.79;45.71;102823.69;5010459;28;45872;-72
2022/02/08 16:56:19;;;;;;;;;26.33;19.33;;;;;22.76;45.82;102824.78;5007623;28;45683;-71
2022/02/08 16:58:52;;;;;;;;;24.67;19.00;;;;;22.73;46.06;102831.28;5008285;28;47999;-71
2022/02/08 17:01:21;;;;;;;;;19.67;16.67;;;;;22.70;45.58;102827.94;5008094;28;45390;-71
2022/02/08 17:03:48;;;;;;;;;22.33;18.00;;;;;22.69;45.68;102832.50;5028821;28;46241;-71
2022/02/08 17:06:20;;;;;;;;;23.67;17.67;;;;;22.64;45.75;102832.84;5070410;28;45425;-72
2022/02/08 17:08:49;;;;;;;;;20.67;18.33;;;;;22.62;46.14;102831.22;5064800;28;45562;-72
2022/02/08 17:11:22;;;;;;;;;26.00;19.00;;;;;22.60;45.78;102834.03;5063395;28;45626;-73
2022/02/08 17:14:14;;;;;;;;;28.00;19.00;;;;;22.56;45.67;102828.97;5060210;27;45538;-73
2022/02/08 17:16:43;;;;;;;;;21.33;16.67;;;;;22.55;45.49;102828.09;5070583;28;45539;-75
2022/02/08 17:36:40;;;;;;;;;21.33;15.67;;;;;22.65;46.58;102817.47;5071807;27;45446;-72
2022/02/08 17:46:36;;;;;;;;;18.33;14.33;;;;;22.92;46.69;102819.09;5071421;28;45822;-73
2022/02/08 17:49:03;;;;;;;;;15.33;15.33;;;;;22.98;46.65;102812.38;5071367;27;45814;-73
2022/02/08 17:51:28;;;;;;;;;19.33;14.67;;;;;23.01;46.61;102815.72;5058943;27;45426;-73
2022/02/08 17:53:54;;;;;;;;;19.33;12.33;;;;;23.06;46.88;102822.63;5055826;28;45469;-73
2022/02/08 17:56:19;;;;;;;;;13.00;12.67;;;;;23.10;46.71;102819.56;5058778;28;51449;-73
2022/02/08 17:58:45;;;;;;;;;15.00;12.33;;;;;23.15;46.16;102827.34;5058508;28;45498;-73
2022/02/08 18:01:11;;;;;;;;;18.33;14.00;;;;;23.19;46.38;102827.97;5068979;28;45429;-73
2022/02/08 18:03:36;;;;;;;;;13.00;12.33;;;;;23.21;45.90;102826.03;5072081;27;45768;-75
2022/02/08 18:06:01;;;;;;;;;12.00;12.00;;;;;23.19;45.21;102831.56;5068840;27;46163;-73
2022/02/08 18:08:27;;;;;;;;;16.00;11.33;;;;;23.16;45.88;102829.06;5065187;27;45577;-73
2022/02/08 18:10:56;;;;;;;;;14.33;12.00;;;;;23.15;46.16;102830.94;5059050;27;45681;-72
2022/02/08 18:13:27;;;;;;;;;18.33;13.33;;;;;23.12;45.45;102817.63;5064020;27;45515;-87
2022/02/08 18:15:53;;;;;;;;;18.67;14.67;;;;;23.13;45.87;102827.47;5063350;28;46493;-73
2022/02/08 18:18:22;;;;;;;;;17.33;12.00;;;;;23.14;46.26;102831.88;5064776;27;45653;-73
2022/02/08 18:21:07;;;;;;;;;14.67;13.67;;;;;23.18;45.67;102819.00;5068686;27;45462;-75
2022/02/08 18:51:14;;;;;;;;;15.67;12.00;;;;;23.31;46.46;102827.06;5066578;27;45580;-73
2022/02/08 19:07:05;;;;;;;;;15.00;9.67;;;;;23.29;46.44;102823.59;5069291;28;45439;-74
2022/02/08 19:11:50;;;;;;;;;11.67;9.00;;;;;23.25;46.54;102827.50;5066503;28;45491;-74
2022/02/08 19:22:10;;;;;;;;;14.33;10.67;;;;;23.11;46.10;102825.84;5057756;28;45485;-74
2022/02/08 19:24:35;;;;;;;;;11.33;9.67;;;;;23.08;46.07;102824.22;5070772;27;45408;-74
2022/02/08 19:27:02;;;;;;;;;14.67;9.33;;;;;23.03;46.04;102821.88;5065527;28;45371;-71
2022/02/08 19:29:33;;;;;;;;;11.33;11.33;;;;;23.01;46.03;102822.97;5061897;27;47042;-73
2022/02/08 19:32:00;;;;;;;;;10.33;8.67;;;;;22.97;46.08;102827.75;5063862;28;45527;-75
2022/02/08 19:34:26;;;;;;;;;12.00;9.00;;;;;22.95;45.95;102826.13;5069296;28;45340;-76
2022/02/08 19:36:55;;;;;;;;;10.33;9.00;;;;;22.92;45.49;102821.81;5067301;28;45457;-84
2022/02/08 19:39:21;;;;;;;;;16.67;12.33;;;;;22.86;45.42;102822.28;5073620;28;46754;-84
2022/02/08 19:41:46;;;;;;;;;16.00;11.00;;;;;22.82;45.77;102815.34;5070744;28;45474;-85
2022/02/08 19:44:11;;;;;;;;;13.33;12.67;;;;;22.71;45.51;102814.31;5069291;28;45525;-84
2022/02/08 19:46:38;;;;;;;;;15.00;11.00;;;;;22.64;45.83;102807.59;5072306;28;45386;-85
2022/02/08 19:49:05;;;;;;;;;10.67;9.33;;;;;22.59;45.91;102815.19;5069424;28;47186;-80
2022/02/08 19:51:33;;;;;;;;;14.33;12.00;;;;;22.55;45.84;102809.16;5076393;27;45346;-90
2022/02/08 19:54:00;;;;;;;;;17.67;14.67;;;;;22.49;45.83;102821.25;5069150;28;45536;-85
2022/02/08 19:56:33;;;;;;;;;13.33;13.00;;;;;22.45;45.50;102822.47;5062375;28;45408;-85
2022/02/08 19:59:00;;;;;;;;;13.67;11.00;;;;;22.40;45.33;102823.75;5066383;28;48330;-85
2022/02/08 20:04:34;;;;;;;;;13.67;10.33;;;;;22.31;45.47;102815.31;5072955;27;45736;-78
2022/02/08 20:06:41;;;;;;;;;17.00;12.00;;;;;22.32;46.18;102827.03;5062474;28;45461;-78
2022/02/08 20:09:07;;;;;;;;;15.33;12.00;;;;;22.32;46.15;102827.88;5060630;28;46887;-77
2022/02/08 20:11:32;;;;;;;;;15.33;12.33;;;;;22.31;45.82;102828.84;5067511;28;45915;-75
2022/02/08 20:13:58;;;;;;;;;14.00;14.00;;;;;22.35;45.87;102826.78;5067241;27;50550;-75
2022/02/08 20:16:27;;;;;;;;;15.00;14.00;;;;;22.41;46.24;102829.06;5071286;27;45577;-78
2022/02/08 20:18:55;;;;;;;;;12.67;11.00;;;;;22.44;46.42;102820.72;5073302;27;47135;-74
2022/02/08 20:21:22;;;;;;;;;10.67;10.00;;;;;22.50;46.60;102827.53;5067996;28;45407;-73
2022/02/08 20:23:48;;;;;;;;;14.67;9.67;;;;;22.54;46.78;102826.38;5067887;28;45454;-75
2022/02/08 20:26:13;;;;;;;;;14.33;11.00;;;;;22.58;46.29;102822.47;5072855;27;45457;-76
2022/02/08 20:29:00;;;;;;;;;15.00;13.67;;;;;22.61;46.54;102822.22;5073030;28;46084;-75
2022/02/08 20:31:24;;;;;;;;;14.33;13.00;;;;;22.61;46.76;102815.97;5072168;27;45481;-73
2022/02/08 20:33:51;;;;;;;;;17.67;11.67;;;;;22.69;46.87;102824.41;5073003;27;45442;-73
2022/02/08 20:36:17;;;;;;;;;12.67;11.00;;;;;22.72;46.40;102821.44;5074630;27;45472;-72
2022/02/08 20:38:45;;;;;;;;;13.67;10.67;;;;;22.74;47.01;102819.50;5069884;28;45449;-73
2022/02/08 20:41:14;;;;;;;;;13.33;11.67;;;;;22.77;46.91;102815.72;5070436;27;45360;-72
2022/02/08 20:43:40;;;;;;;;;13.67;11.67;;;;;22.79;46.23;102805.63;5070624;28;45684;-72
2022/02/08 20:46:07;;;;;;;;;11.00;11.00;;;;;22.81;46.90;102802.78;5061236;28;45693;-73
2022/02/08 20:48:33;;;;;;;;;11.33;10.67;;;;;22.79;46.78;102800.19;5074040;28;48240;-71
2022/02/08 20:51:01;;;;;;;;;14.00;10.00;;;;;22.82;46.65;102810.81;5067458;27;45585;-72
2022/02/08 20:56:09;;;;;;;;;10.00;8.67;;;;;22.78;47.15;102795.78;5069972;28;45427;-73
2022/02/08 20:58:54;;;;;;;;;15.00;12.00;;;;;22.82;46.91;102790.97;5070724;27;45420;-73
2022/02/08 21:01:20;;;;;;;;;14.00;13.67;;;;;22.82;46.61;102786.44;5070465;28;45395;-73
2022/02/08 21:04:00;;;;;;;;;11.00;10.33;;;;;22.83;47.25;102782.75;5073626;28;45454;-73
2022/02/08 21:06:28;;;;;;;;;11.33;9.33;;;;;22.85;47.37;102788.06;5063114;28;45447;-75
2022/02/08 21:08:54;;;;;;;;;13.33;12.67;;;;;22.87;46.95;102786.97;5059690;28;46450;-73
2022/02/08 21:11:22;;;;;;;;;11.33;11.00;;;;;22.89;47.38;102790.41;5064336;28;45757;-73
2022/02/08 21:13:50;;;;;;;;;13.00;10.00;;;;;22.93;46.75;102790.19;5071950;28;45557;-75
2022/02/08 21:16:20;;;;;;;;;12.67;12.67;;;;;22.95;47.50;102796.34;5068123;28;45448;-76
2022/02/08 21:18:46;;;;;;;;;16.33;13.00;;;;;22.98;47.09;102796.13;5073777;28;46967;-73
2022/02/08 21:21:11;;;;;;;;;13.00;12.00;;;;;23.00;47.03;102794.16;5071561;28;45602;-73
2022/02/08 21:23:37;;;;;;;;;12.33;12.33;;;;;23.02;46.90;102797.63;5070586;28;45324;-73
2022/02/08 21:26:04;;;;;;;;;13.00;11.33;;;;;23.04;47.13;102790.22;5070972;28;45654;-75
2022/02/08 21:29:07;;;;;;;;;15.00;13.33;;;;;23.05;47.03;102791.97;5071918;28;47149;-75
2022/02/08 21:50:02;;;;;;;;;15.00;12.67;;;;;23.05;47.40;102762.16;5063242;28;45663;-74
2022/02/08 21:52:32;;;;;;;;;14.00;12.33;;;;;23.05;47.40;102756.75;5056809;28;45385;-75
2022/02/08 21:55:03;;;;;;;;;14.00;13.33;;;;;23.03;47.48;102762.31;5061685;28;45373;-78
2022/02/08 21:57:41;;;;;;;;;13.00;13.00;;;;;23.02;47.24;102757.84;5073188;28;45392;-76
2022/02/08 22:00:10;;;;;;;;;17.00;15.67;;;;;22.94;47.40;102752.16;5059746;28;46272;-76
2022/02/08 22:02:35;;;;;;;;;14.00;11.33;;;;;23.01;47.29;102766.13;5069806;27;45683;-76
2022/02/08 22:05:02;;;;;;;;;15.33;11.00;;;;;23.00;47.28;102767.94;5070058;28;45393;-73
2022/02/08 22:07:30;;;;;;;;;11.00;11.00;;;;;22.99;47.31;102762.63;5060901;27;45497;-76
2022/02/08 22:10:07;;;;;;;;;12.00;12.00;;;;;22.97;47.60;102762.75;5071969;28;46353;-74
2022/02/08 22:31:32;;;;;;;;;13.00;13.00;;;;;22.96;47.77;102738.50;5034947;28;45497;-75
2022/02/08 22:34:05;;;;;;;;;11.67;10.67;;;;;22.95;47.49;102737.66;5032066;28;45489;-75
2022/02/08 22:36:57;;;;;;;;;15.00;12.33;;;;;22.95;47.52;102739.47;5043174;28;45525;-74
2022/02/08 22:39:27;;;;;;;;;11.33;11.33;;;;;22.92;47.67;102731.59;5050595;28;45681;-75
2022/02/08 22:42:06;;;;;;;;;11.33;11.00;;;;;22.91;47.63;102738.84;5040762;28;45548;-74
